createdAt,value
2023-03-03T00:00:56.274Z,100868.81
2023-03-03T00:03:24.851Z,100859.31
2023-03-03T00:05:52.231Z,100855.63
2023-03-03T00:08:19.631Z,100795.91
2023-03-03T00:10:46.603Z,100830.38
2023-03-03T00:13:23.788Z,100875.97
2023-03-03T00:15:51.831Z,100830.22
2023-03-03T00:18:28.126Z,100871.38
2023-03-03T00:21:01.227Z,100874.13
2023-03-03T00:23:40.983Z,100830.09
2023-03-03T00:26:19.726Z,100827.25
2023-03-03T00:28:48.398Z,100855.53
2023-03-03T00:31:35.052Z,100744.28
2023-03-03T00:34:17.725Z,100859.41
2023-03-03T00:36:44.636Z,100828.06
2023-03-03T00:39:18.338Z,100794.09
2023-03-03T00:41:45.250Z,100810.03
2023-03-03T00:44:24.353Z,100847.84
2023-03-03T00:46:54.224Z,100721.34
2023-03-03T00:49:26.463Z,100845.16
2023-03-03T00:51:53.985Z,100815.34
2023-03-03T00:54:20.892Z,100817.09
2023-03-03T00:56:48.271Z,100793.00
2023-03-03T00:59:14.998Z,100831.97
2023-03-03T01:01:41.845Z,100808.44
2023-03-03T01:04:08.714Z,100824.97
2023-03-03T01:06:35.544Z,100823.81
2023-03-03T01:09:02.296Z,100795.63
2023-03-03T01:11:29.470Z,100778.94
2023-03-03T01:13:56.592Z,100743.00
2023-03-03T01:16:23.468Z,100769.31
2023-03-03T01:18:50.454Z,100793.38
2023-03-03T01:21:17.213Z,100815.16
2023-03-03T01:23:43.967Z,100817.38
2023-03-03T01:26:11.010Z,100777.00
2023-03-03T01:28:37.954Z,100807.25
2023-03-03T01:31:05.448Z,100806.69
2023-03-03T01:33:33.601Z,100600.75
2023-03-03T01:36:00.445Z,100804.47
2023-03-03T01:38:27.217Z,100725.91
2023-03-03T01:40:55.503Z,100770.91
2023-03-03T01:43:23.006Z,100777.03
2023-03-03T01:45:49.791Z,100789.16
2023-03-03T01:48:19.342Z,100747.34
2023-03-03T01:51:04.439Z,100747.53
2023-03-03T01:53:36.639Z,100784.75
2023-03-03T01:56:04.172Z,100777.94
2023-03-03T01:58:36.736Z,100740.22
2023-03-03T02:01:09.423Z,100773.81
2023-03-03T02:03:36.228Z,100731.88
2023-03-03T02:06:11.429Z,100742.16
2023-03-03T02:08:54.673Z,100763.03
2023-03-03T02:11:22.052Z,100750.88
2023-03-03T02:13:49.017Z,100746.38
2023-03-03T02:16:15.937Z,100777.84
2023-03-03T02:18:42.976Z,100777.34
2023-03-03T02:21:17.066Z,100774.06
2023-03-03T02:24:08.303Z,100760.72
2023-03-03T02:26:37.321Z,100760.72
2023-03-03T02:29:04.302Z,100756.34
2023-03-03T02:31:31.798Z,100747.81
2023-03-03T02:33:58.595Z,100749.22
2023-03-03T02:36:30.088Z,100669.34
2023-03-03T02:38:56.914Z,100752.00
2023-03-03T02:41:23.612Z,100753.16
2023-03-03T02:44:02.352Z,100714.31
2023-03-03T02:46:29.899Z,100718.00
2023-03-03T02:48:56.636Z,100707.84
2023-03-03T02:51:23.481Z,100744.00
2023-03-03T02:53:50.292Z,100723.00
2023-03-03T02:56:17.053Z,100707.91
2023-03-03T02:58:43.979Z,100716.50
2023-03-03T03:01:10.889Z,100733.00
2023-03-03T03:03:37.839Z,100701.22
2023-03-03T03:06:04.912Z,100631.47
2023-03-03T03:08:31.676Z,100736.81
2023-03-03T03:10:58.497Z,100696.97
2023-03-03T03:13:25.939Z,100670.56
2023-03-03T03:15:52.859Z,100751.06
2023-03-03T03:18:19.701Z,100712.72
2023-03-03T03:20:48.399Z,100727.53
2023-03-03T03:23:15.502Z,100737.22
2023-03-03T03:25:48.061Z,100734.19
2023-03-03T03:28:16.491Z,100713.16
2023-03-03T03:30:44.420Z,100675.47
2023-03-03T03:33:11.623Z,100660.91
2023-03-03T03:35:38.547Z,100676.28
2023-03-03T03:38:05.434Z,100598.38
2023-03-03T03:40:32.419Z,100718.34
2023-03-03T03:42:59.221Z,100700.88
2023-03-03T03:45:25.994Z,100723.50
2023-03-03T03:47:52.894Z,100673.53
2023-03-03T03:50:19.781Z,100705.19
2023-03-03T03:52:46.553Z,100718.81
2023-03-03T03:55:13.461Z,100687.28
2023-03-03T03:57:40.273Z,100685.59
2023-03-03T04:00:08.907Z,100650.78
2023-03-03T04:02:36.345Z,100628.34
2023-03-03T04:05:03.518Z,100705.84
2023-03-03T04:07:30.246Z,100703.94
2023-03-03T04:09:57.209Z,100591.47
2023-03-03T04:12:23.966Z,100742.22
2023-03-03T04:14:50.707Z,100661.53
2023-03-03T04:17:18.805Z,100740.03
2023-03-03T04:19:45.595Z,100671.53
2023-03-03T04:22:13.720Z,100690.63
2023-03-03T04:24:41.132Z,100683.91
2023-03-03T04:27:09.580Z,100712.44
2023-03-03T04:29:36.475Z,100745.81
2023-03-03T04:32:03.393Z,100751.66
2023-03-03T04:34:30.273Z,100746.94
2023-03-03T04:36:57.129Z,100723.53
2023-03-03T04:39:24.016Z,100743.16
2023-03-03T04:41:50.744Z,100697.53
2023-03-03T04:44:17.465Z,100735.16
2023-03-03T04:46:44.340Z,100616.91
2023-03-03T04:49:12.581Z,100696.13
2023-03-03T04:51:39.507Z,100730.09
2023-03-03T04:54:06.419Z,100691.91
2023-03-03T04:56:33.181Z,100607.19
2023-03-03T04:58:59.992Z,100679.53
2023-03-03T05:01:27.039Z,100701.06
2023-03-03T05:03:53.832Z,100709.22
2023-03-03T05:06:24.640Z,100741.72
2023-03-03T05:08:51.530Z,100741.03
2023-03-03T05:11:18.334Z,100671.59
2023-03-03T05:13:46.253Z,100718.47
2023-03-03T05:16:13.228Z,100734.81
2023-03-03T05:18:40.033Z,100677.56
2023-03-03T05:21:06.755Z,100739.25
2023-03-03T05:23:33.680Z,100713.28
2023-03-03T05:26:02.045Z,100725.53
2023-03-03T05:28:28.938Z,100691.13
2023-03-03T05:30:55.882Z,100717.97
2023-03-03T05:33:22.655Z,100731.44
2023-03-03T05:35:54.008Z,100700.66
2023-03-03T05:38:20.978Z,100704.50
2023-03-03T05:40:47.866Z,100733.03
2023-03-03T05:43:14.754Z,100718.31
2023-03-03T05:45:41.675Z,100723.84
2023-03-03T05:48:10.354Z,100752.78
2023-03-03T05:50:37.755Z,100729.34
2023-03-03T05:53:04.637Z,100695.22
2023-03-03T05:55:31.568Z,100698.28
2023-03-03T05:57:58.439Z,100710.47
2023-03-03T06:00:25.320Z,100706.50
2023-03-03T06:02:52.220Z,100759.13
2023-03-03T06:05:19.084Z,100747.69
2023-03-03T06:07:46.101Z,100710.97
2023-03-03T06:10:13.011Z,100775.16
2023-03-03T06:12:41.269Z,100737.97
2023-03-03T06:15:08.832Z,100774.56
2023-03-03T06:17:35.727Z,100775.50
2023-03-03T06:20:03.395Z,100738.81
2023-03-03T06:22:30.712Z,100712.88
2023-03-03T06:24:57.447Z,100726.00
2023-03-03T06:27:24.317Z,100746.22
2023-03-03T06:29:51.264Z,100716.38
2023-03-03T06:32:18.171Z,100726.00
2023-03-03T06:34:45.047Z,100777.56
2023-03-03T06:37:12.007Z,100732.03
2023-03-03T06:39:38.991Z,100780.41
2023-03-03T06:42:06.440Z,100773.88
2023-03-03T06:44:33.532Z,100764.97
2023-03-03T06:47:00.320Z,100790.72
2023-03-03T06:49:27.110Z,100776.75
2023-03-03T06:51:53.950Z,100793.44
2023-03-03T06:54:25.091Z,100768.19
2023-03-03T06:56:54.276Z,100793.78
2023-03-03T06:59:21.822Z,100713.81
2023-03-03T07:01:49.687Z,100788.84
2023-03-03T07:04:34.259Z,100731.75
2023-03-03T07:07:10.982Z,100776.38
2023-03-03T07:09:37.966Z,100774.56
2023-03-03T07:12:11.497Z,100763.88
2023-03-03T07:14:43.333Z,100806.97
2023-03-03T07:17:15.320Z,100812.50
2023-03-03T07:19:42.169Z,100756.22
2023-03-03T07:22:20.120Z,100815.28
2023-03-03T07:24:57.631Z,100815.78
2023-03-03T07:27:26.244Z,100787.16
2023-03-03T07:29:54.557Z,100783.59
2023-03-03T07:32:28.400Z,100818.25
2023-03-03T07:34:56.136Z,100722.94
2023-03-03T07:37:27.586Z,100826.31
2023-03-03T07:39:54.476Z,100821.59
2023-03-03T07:42:40.478Z,100821.13
2023-03-03T07:45:25.104Z,100827.03
2023-03-03T07:47:52.049Z,100826.19
2023-03-03T07:50:20.458Z,100770.94
2023-03-03T07:52:57.120Z,100796.41
2023-03-03T07:55:37.580Z,100775.91
2023-03-03T07:58:15.900Z,100829.25
2023-03-03T08:00:46.347Z,100852.94
2023-03-03T08:03:17.862Z,100833.59
2023-03-03T08:05:45.533Z,100766.28
2023-03-03T08:08:18.326Z,100832.09
2023-03-03T08:10:49.379Z,100798.78
2023-03-03T08:13:29.450Z,100838.50
2023-03-03T08:15:58.031Z,100843.19
2023-03-03T08:18:28.764Z,100851.22
2023-03-03T08:20:57.921Z,100843.78
2023-03-03T08:23:24.857Z,100849.09
2023-03-03T08:25:52.075Z,100826.38
2023-03-03T08:28:19.795Z,100831.91
2023-03-03T08:30:46.867Z,100799.38
2023-03-03T08:33:13.965Z,100836.31
2023-03-03T08:35:40.928Z,100840.69
2023-03-03T08:38:08.103Z,100826.75
2023-03-03T08:40:35.513Z,100815.31
2023-03-03T08:43:02.428Z,100829.44
2023-03-03T08:45:29.350Z,100834.28
2023-03-03T08:48:08.533Z,100814.28
2023-03-03T08:50:35.374Z,100810.66
2023-03-03T08:53:02.163Z,100811.78
2023-03-03T08:55:29.050Z,100840.69
2023-03-03T08:57:55.831Z,100820.81
2023-03-03T09:00:22.872Z,100817.00
2023-03-03T09:02:51.389Z,100761.13
2023-03-03T09:05:18.302Z,100799.81
2023-03-03T09:07:47.617Z,100832.25
2023-03-03T09:10:18.270Z,100799.00
2023-03-03T09:12:49.242Z,100828.91
2023-03-03T09:15:23.692Z,100795.03
2023-03-03T09:17:50.819Z,100830.72
2023-03-03T09:20:42.545Z,100825.53
2023-03-03T09:23:37.941Z,100829.53
2023-03-03T09:26:28.501Z,100832.63
2023-03-03T09:29:02.266Z,100780.53
2023-03-03T09:31:39.430Z,100835.38
2023-03-03T09:34:35.366Z,100810.41
2023-03-03T09:37:02.416Z,100837.28
2023-03-03T09:39:30.682Z,100821.28
2023-03-03T09:42:06.706Z,100832.88
2023-03-03T09:44:36.607Z,100850.97
2023-03-03T09:47:07.389Z,100758.38
2023-03-03T09:50:01.416Z,100831.31
2023-03-03T09:52:56.819Z,100832.97
2023-03-03T09:55:45.296Z,100827.53
2023-03-03T09:58:21.267Z,100829.38
2023-03-03T10:01:03.212Z,100827.22
2023-03-03T10:03:57.983Z,100820.66
2023-03-03T10:06:29.810Z,100819.06
2023-03-03T10:09:24.771Z,100817.00
2023-03-03T10:12:36.056Z,100788.78
2023-03-03T10:15:07.577Z,100812.84
2023-03-03T10:17:46.951Z,100826.31
2023-03-03T10:20:49.593Z,100824.09
2023-03-03T10:23:26.676Z,100830.00
2023-03-03T10:25:54.807Z,100804.28
2023-03-03T10:28:34.128Z,100817.69
2023-03-03T10:31:17.287Z,100814.06
2023-03-03T10:34:21.452Z,100816.41
2023-03-03T10:36:55.798Z,100814.78
2023-03-03T10:39:34.707Z,100819.38
2023-03-03T10:42:16.697Z,100822.41
2023-03-03T10:45:02.189Z,100814.94
2023-03-03T10:47:32.034Z,100823.25
2023-03-03T10:50:32.140Z,100794.91
2023-03-03T10:53:34.525Z,100807.34
2023-03-03T10:56:56.782Z,100809.22
2023-03-03T10:59:38.773Z,100793.88
2023-03-03T11:02:39.188Z,100802.78
2023-03-03T11:05:16.142Z,100815.13
2023-03-03T11:07:44.471Z,100801.59
2023-03-03T11:10:43.863Z,100802.72
2023-03-03T11:13:29.463Z,100793.03
2023-03-03T11:16:21.194Z,100778.28
2023-03-03T11:19:02.371Z,100785.78
2023-03-03T11:21:49.805Z,100784.03
2023-03-03T11:24:31.777Z,100793.72
2023-03-03T11:27:05.740Z,100787.75
2023-03-03T11:29:39.017Z,100775.06
2023-03-03T11:32:24.701Z,100781.31
2023-03-03T11:34:57.600Z,100770.69
2023-03-03T11:37:30.231Z,100729.03
2023-03-03T11:39:58.278Z,100770.38
2023-03-03T11:42:28.844Z,100772.00
2023-03-03T11:44:57.314Z,100714.41
2023-03-03T11:47:35.667Z,100756.84
2023-03-03T11:50:02.630Z,100766.44
2023-03-03T11:53:01.435Z,100737.38
2023-03-03T11:55:28.226Z,100750.16
2023-03-03T11:58:04.019Z,100756.31
2023-03-03T12:00:37.993Z,100766.38
2023-03-03T12:03:35.941Z,100719.16
2023-03-03T12:06:05.900Z,100750.56
2023-03-03T12:08:43.127Z,100751.22
2023-03-03T12:11:25.088Z,100749.34
2023-03-03T12:14:28.191Z,100756.81
2023-03-03T12:16:59.245Z,100757.69
2023-03-03T12:19:32.500Z,100750.94
2023-03-03T12:22:12.218Z,100759.81
2023-03-03T12:24:41.978Z,100754.47
2023-03-03T12:27:35.975Z,100709.75
2023-03-03T12:30:13.344Z,100748.47
2023-03-03T12:32:45.539Z,100748.38
2023-03-03T12:35:30.613Z,100740.47
2023-03-03T12:38:12.857Z,100741.56
2023-03-03T12:40:44.730Z,100737.81
2023-03-03T12:43:23.836Z,100734.47
2023-03-03T12:45:50.442Z,100733.19
2023-03-03T12:48:20.446Z,100742.69
2023-03-03T12:51:01.035Z,100731.63
2023-03-03T12:53:46.640Z,100731.63
2023-03-03T12:56:25.577Z,100737.44
2023-03-03T12:59:34.246Z,100724.13
2023-03-03T13:02:01.110Z,100744.22
2023-03-03T13:04:39.289Z,100738.28
2023-03-03T13:07:23.932Z,100720.31
2023-03-03T13:09:59.723Z,100711.44
2023-03-03T13:12:32.393Z,100713.94
2023-03-03T13:15:29.676Z,100706.72
2023-03-03T13:18:22.970Z,100696.00
2023-03-03T13:20:51.865Z,100679.34
2023-03-03T13:23:38.584Z,100690.97
2023-03-03T13:26:22.605Z,100691.44
2023-03-03T13:29:23.715Z,100683.25
2023-03-03T13:32:20.013Z,100678.25
2023-03-03T13:34:50.321Z,100698.38
2023-03-03T13:37:31.586Z,100683.78
2023-03-03T13:40:01.914Z,100676.22
2023-03-03T13:42:38.058Z,100671.84
2023-03-03T13:45:28.338Z,100663.81
2023-03-03T13:48:30.423Z,100661.16
2023-03-03T13:50:58.148Z,100578.19
2023-03-03T13:53:54.178Z,100657.63
2023-03-03T13:56:24.970Z,100676.91
2023-03-03T13:59:10.870Z,100663.56
2023-03-03T14:01:46.700Z,100663.41
2023-03-03T14:04:33.323Z,100649.88
2023-03-03T14:07:07.685Z,100655.44
2023-03-03T14:10:08.651Z,100646.69
2023-03-03T14:13:23.756Z,100649.56
2023-03-03T14:16:34.629Z,100634.28
2023-03-03T14:19:22.309Z,100630.94
2023-03-03T14:22:07.255Z,100656.91
2023-03-03T14:24:36.720Z,100664.38
2023-03-03T14:27:07.193Z,100643.06
2023-03-03T14:29:34.113Z,100616.22
2023-03-03T14:32:02.409Z,100647.50
2023-03-03T14:34:40.101Z,100618.94
2023-03-03T14:37:29.345Z,100647.72
2023-03-03T14:40:18.050Z,100647.19
2023-03-03T14:42:55.722Z,100596.69
2023-03-03T14:45:36.483Z,100569.03
2023-03-03T14:48:32.678Z,100520.91
2023-03-03T14:51:04.654Z,100649.88
2023-03-03T14:53:36.473Z,100597.97
2023-03-03T14:56:22.655Z,100638.22
2023-03-03T14:58:49.755Z,100641.84
2023-03-03T15:01:36.053Z,100619.81
2023-03-03T15:04:15.200Z,100619.53
2023-03-03T15:06:54.677Z,100632.75
2023-03-03T15:09:36.854Z,100616.56
2023-03-03T15:12:17.600Z,100616.19
2023-03-03T15:14:46.300Z,100619.56
2023-03-03T15:17:29.893Z,100615.41
2023-03-03T15:19:56.796Z,100627.44
2023-03-03T15:23:12.071Z,100587.00
2023-03-03T15:25:43.676Z,100624.75
2023-03-03T15:28:17.029Z,100621.31
2023-03-03T15:30:54.620Z,100616.69
2023-03-03T15:33:40.551Z,100619.38
2023-03-03T15:36:09.373Z,100563.50
2023-03-03T15:38:36.080Z,100607.91
2023-03-03T15:41:27.059Z,100599.13
2023-03-03T15:44:19.712Z,100552.47
2023-03-03T15:47:05.718Z,100592.16
2023-03-03T15:49:45.837Z,100605.94
2023-03-03T15:52:34.968Z,100558.38
2023-03-03T15:55:23.293Z,100595.50
2023-03-03T15:58:11.554Z,100600.59
2023-03-03T16:00:47.400Z,100592.28
2023-03-03T16:03:20.284Z,100575.53
2023-03-03T16:05:54.050Z,100561.94
2023-03-03T16:08:29.901Z,100576.63
2023-03-03T16:11:25.981Z,100575.59
2023-03-03T16:14:11.171Z,100601.56
2023-03-03T16:17:02.436Z,100592.38
2023-03-03T16:20:23.953Z,100591.34
2023-03-03T16:23:15.139Z,100598.91
2023-03-03T16:26:19.469Z,100593.78
2023-03-03T16:29:08.393Z,100609.69
2023-03-03T16:31:37.513Z,100509.03
2023-03-03T16:34:17.404Z,100506.53
2023-03-03T16:36:55.482Z,100595.97
2023-03-03T16:39:40.985Z,100589.91
2023-03-03T16:42:11.333Z,100588.03
2023-03-03T16:45:03.779Z,100559.25
2023-03-03T16:47:33.589Z,100589.28
2023-03-03T16:50:00.142Z,100592.41
2023-03-03T16:52:33.923Z,100547.78
2023-03-03T16:55:05.400Z,100593.41
2023-03-03T16:57:58.459Z,100598.84
2023-03-03T17:00:43.337Z,100597.78
2023-03-03T17:03:28.290Z,100600.41
2023-03-03T17:05:58.111Z,100606.13
2023-03-03T17:08:43.383Z,100599.97
2023-03-03T17:11:28.595Z,100610.25
2023-03-03T17:14:17.435Z,100621.06
2023-03-03T17:16:52.975Z,100620.34
2023-03-03T17:19:45.850Z,100598.91
2023-03-03T17:22:28.240Z,100572.22
2023-03-03T17:25:13.364Z,100573.44
2023-03-03T17:27:58.810Z,100606.91
2023-03-03T17:30:28.372Z,100610.94
2023-03-03T17:33:15.324Z,100604.84
2023-03-03T17:35:45.005Z,100613.97
2023-03-03T17:38:20.994Z,100603.94
2023-03-03T17:41:28.273Z,100600.41
2023-03-03T17:44:24.725Z,100615.94
2023-03-03T17:47:00.714Z,100615.19
2023-03-03T17:50:06.002Z,100611.00
2023-03-03T17:52:41.943Z,100608.59
2023-03-03T17:55:40.660Z,100612.53
2023-03-03T17:58:07.771Z,100621.00
2023-03-03T18:00:46.851Z,100620.78
2023-03-03T18:03:41.099Z,100623.69
2023-03-03T18:06:14.968Z,100624.88
2023-03-03T18:09:18.809Z,100621.59
2023-03-03T18:12:08.635Z,100621.97
2023-03-03T18:14:35.235Z,100624.28
2023-03-03T18:17:20.624Z,100622.38
2023-03-03T18:20:22.075Z,100622.50
2023-03-03T18:22:52.871Z,100623.69
2023-03-03T18:25:27.296Z,100507.88
2023-03-03T18:28:00.231Z,100626.06
2023-03-03T18:30:49.443Z,100622.75
2023-03-03T18:33:16.643Z,100559.34
2023-03-03T18:35:45.103Z,100571.91
2023-03-03T18:38:18.067Z,100629.94
2023-03-03T18:41:19.508Z,100634.75
2023-03-03T18:43:46.214Z,100648.28
2023-03-03T18:46:25.161Z,100633.19
2023-03-03T18:49:10.621Z,100518.38
2023-03-03T18:51:40.399Z,100631.88
2023-03-03T18:54:13.748Z,100635.59
2023-03-03T18:56:47.280Z,100634.47
2023-03-03T18:59:35.782Z,100636.50
2023-03-03T19:02:25.665Z,100591.09
2023-03-03T19:05:29.270Z,100634.91
2023-03-03T19:08:05.401Z,100627.94
2023-03-03T19:10:38.243Z,100633.53
2023-03-03T19:13:09.936Z,100628.25
2023-03-03T19:15:44.975Z,100628.59
2023-03-03T19:18:26.706Z,100634.19
2023-03-03T19:21:12.626Z,100642.63
2023-03-03T19:24:02.842Z,100622.03
2023-03-03T19:26:35.594Z,100635.75
2023-03-03T19:29:14.869Z,100662.75
2023-03-03T19:32:18.455Z,100653.84
2023-03-03T19:34:45.259Z,100665.31
2023-03-03T19:37:43.150Z,100662.50
2023-03-03T19:40:22.076Z,100652.16
2023-03-03T19:42:56.501Z,100600.84
2023-03-03T19:45:37.520Z,100654.97
2023-03-03T19:48:13.218Z,100654.97
2023-03-03T19:50:51.565Z,100580.69
2023-03-03T19:53:33.415Z,100652.69
2023-03-03T19:56:24.180Z,100658.03
2023-03-03T19:59:01.921Z,100652.44
2023-03-03T20:01:50.002Z,100648.81
2023-03-03T20:04:54.593Z,100659.69
2023-03-03T20:07:24.355Z,100670.06
2023-03-03T20:10:22.341Z,100667.78
2023-03-03T20:13:12.185Z,100666.94
2023-03-03T20:15:39.074Z,100670.88
2023-03-03T20:18:24.147Z,100675.66
2023-03-03T20:20:56.715Z,100667.78
2023-03-03T20:23:29.874Z,100670.31
2023-03-03T20:26:34.302Z,100671.16
2023-03-03T20:29:23.488Z,100674.50
2023-03-03T20:31:59.588Z,100661.03
2023-03-03T20:34:41.662Z,100664.41
2023-03-03T20:37:34.252Z,100669.69
2023-03-03T20:40:32.344Z,100659.31
2023-03-03T20:43:24.755Z,100667.72
2023-03-03T20:45:54.645Z,100666.63
2023-03-03T20:48:33.549Z,100666.63
2023-03-03T20:51:03.355Z,100662.97
2023-03-03T20:53:42.267Z,100665.47
2023-03-03T20:56:11.404Z,100626.41
2023-03-03T20:58:41.207Z,100660.72
2023-03-03T21:01:09.413Z,100632.00
2023-03-03T21:03:42.620Z,100654.28
2023-03-03T21:06:16.589Z,100565.59
2023-03-03T21:08:44.732Z,100666.56
2023-03-03T21:11:13.275Z,100638.44
2023-03-03T21:13:46.780Z,100670.50
2023-03-03T21:16:25.339Z,100674.13
2023-03-03T21:19:13.578Z,100676.94
2023-03-03T21:21:41.770Z,100649.06
2023-03-03T21:24:13.366Z,100691.25
2023-03-03T21:26:49.172Z,100699.66
2023-03-03T21:29:26.194Z,100651.66
2023-03-03T21:31:52.973Z,100709.47
2023-03-03T21:34:26.410Z,100704.44
2023-03-03T21:36:53.428Z,100657.31
2023-03-03T21:39:22.180Z,100647.84
2023-03-03T21:42:04.200Z,100723.19
2023-03-03T21:44:35.182Z,100726.28
2023-03-03T21:47:02.419Z,100717.34
2023-03-03T21:49:29.378Z,100693.09
2023-03-03T21:51:56.971Z,100707.63
2023-03-03T21:54:24.374Z,100739.44
2023-03-03T21:56:51.529Z,100696.44
2023-03-03T21:59:18.641Z,100724.91
2023-03-03T22:01:45.810Z,100725.75
2023-03-03T22:04:12.805Z,100642.81
2023-03-03T22:06:40.005Z,100664.34
2023-03-03T22:09:07.127Z,100728.81
2023-03-03T22:11:34.172Z,100716.84
2023-03-03T22:14:01.090Z,100700.06
2023-03-03T22:16:27.922Z,100688.63
2023-03-03T22:18:54.834Z,100607.97
2023-03-03T22:21:22.354Z,100727.16
2023-03-03T22:23:49.086Z,100704.59
2023-03-03T22:26:16.046Z,100736.69
2023-03-03T22:28:44.346Z,100667.69
2023-03-03T22:31:11.398Z,100626.69
2023-03-03T22:33:38.311Z,100609.97
2023-03-03T22:36:05.364Z,100668.28
2023-03-03T22:38:32.135Z,100708.53
2023-03-03T22:40:59.715Z,100685.91
2023-03-03T22:43:27.532Z,100687.00
2023-03-03T22:45:54.412Z,100701.53
2023-03-03T22:48:21.448Z,100683.69
2023-03-03T22:50:48.213Z,100685.34
2023-03-03T22:53:15.031Z,100640.66
2023-03-03T22:55:41.903Z,100724.47
2023-03-03T22:58:09.521Z,100658.84
2023-03-03T23:00:39.703Z,100627.31
2023-03-03T23:03:07.096Z,100710.53
2023-03-03T23:05:34.129Z,100718.06
2023-03-03T23:08:01.003Z,100713.91
2023-03-03T23:10:28.200Z,100728.41
2023-03-03T23:12:54.968Z,100711.66
2023-03-03T23:15:23.049Z,100672.59
2023-03-03T23:17:49.881Z,100723.97
2023-03-03T23:20:24.616Z,100662.81
2023-03-03T23:22:51.685Z,100688.28
2023-03-03T23:25:18.718Z,100677.09
2023-03-03T23:27:45.539Z,100696.09
2023-03-03T23:30:13.848Z,100684.63
2023-03-03T23:32:41.023Z,100676.00
2023-03-03T23:35:08.282Z,100677.13
2023-03-03T23:37:35.273Z,100699.19
2023-03-03T23:40:02.332Z,100602.84
2023-03-03T23:42:30.727Z,100694.44
2023-03-03T23:44:57.977Z,100674.63
2023-03-03T23:47:24.736Z,100690.25
2023-03-03T23:49:51.757Z,100712.91
2023-03-03T23:52:18.984Z,100703.41
2023-03-03T23:54:45.915Z,100677.97
2023-03-03T23:57:12.794Z,100703.13
2023-03-03T23:59:39.654Z,100705.09
